createdAt,value
2022-12-25T00:00:01.859Z,53.30096570994529
2022-12-25T00:15:01.619Z,53.64304419763444
2022-12-25T00:30:02.561Z,53.2805904517382
2022-12-25T00:45:02.208Z,53.401240043271
2022-12-25T01:00:01.854Z,53.009026144599595
2022-12-25T01:15:02.495Z,52.37044437157706
2022-12-25T01:30:02.163Z,52.99433319812214
2022-12-25T01:45:01.801Z,52.2913318187568
2022-12-25T02:00:02.413Z,51.344774413717985
2022-12-25T02:15:05.737Z,50.644697274640464
2022-12-25T02:30:02.053Z,50.003368512150615
2022-12-25T02:45:01.698Z,49.55866898979608
2022-12-25T03:00:02.313Z,48.92300542996658
2022-12-25T03:15:01.943Z,48.69065323515121
2022-12-25T03:30:01.596Z,49.59624748636079
2022-12-25T03:45:02.229Z,50.310048954072116
2022-12-25T04:00:01.891Z,50.7866357259139
2022-12-25T04:15:01.532Z,50.280679321119976
2022-12-25T04:30:02.209Z,50.841093245291624
2022-12-25T04:45:01.852Z,49.37170799803293
2022-12-25T05:00:01.537Z,51.15712120926092
2022-12-25T05:15:02.171Z,52.314119875471654
2022-12-25T05:30:01.943Z,52.6189609574641
2022-12-25T05:45:01.691Z,53.46162663380908
2022-12-25T06:00:02.355Z,53.14852129358868
2022-12-25T06:15:02.080Z,53.38828270914182
2022-12-25T06:30:01.747Z,53.351058460828895
2022-12-25T06:45:01.383Z,52.96944586891286
2022-12-25T07:00:02.183Z,51.46214366094462
2022-12-25T07:15:01.890Z,49.79413512270004
2022-12-25T07:30:01.542Z,50.053591041332474
2022-12-25T07:45:02.198Z,52.601076688765076
2022-12-25T08:00:01.820Z,53.7664521008714
2022-12-25T08:15:01.561Z,53.75574317187476
2022-12-25T08:30:02.481Z,53.38469368516409
2022-12-25T08:45:02.133Z,52.959450319637554
2022-12-25T09:00:01.776Z,51.935094199803814
2022-12-25T09:15:02.398Z,50.9924190208272
2022-12-25T09:30:02.071Z,51.87253060525214
2022-12-25T09:45:01.697Z,49.29567670849344
2022-12-25T10:00:02.305Z,48.64462099940874
2022-12-25T10:15:01.934Z,48.478461610744674
2022-12-25T10:30:01.593Z,48.108169338098044
2022-12-25T10:45:02.229Z,48.02009898105944
2022-12-25T11:00:01.868Z,48.952276471810535
2022-12-25T11:15:01.524Z,49.02490495905838
2022-12-25T11:30:02.158Z,51.85114199944571
2022-12-25T11:45:01.794Z,51.424797295301715
2022-12-25T12:00:02.432Z,51.90577107156091
2022-12-25T12:15:02.081Z,51.85853606439617
2022-12-25T12:30:01.777Z,51.843472767242325
2022-12-25T12:45:02.420Z,50.93121425769012
2022-12-25T13:00:06.566Z,50.529869611168685
2022-12-25T13:15:01.581Z,50.23190417308024
2022-12-25T13:30:02.228Z,50.60509889077639
2022-12-25T13:45:01.849Z,51.16041771856084
2022-12-25T14:00:01.484Z,50.90069215669021
2022-12-25T14:15:02.101Z,51.09256743028196
2022-12-25T14:30:01.750Z,50.40653694604871
2022-12-25T14:45:01.406Z,50.478629712190255
2022-12-25T15:00:02.020Z,50.50275555023704
2022-12-25T15:15:01.880Z,50.53302593194544
2022-12-25T15:30:10.489Z,50.313775209484795
2022-12-25T15:45:01.692Z,51.05134891324588
2022-12-25T16:00:01.402Z,51.35615617994281
2022-12-25T16:15:02.174Z,51.59244239015109
2022-12-25T16:30:02.109Z,51.51488680043171
2022-12-25T16:45:01.774Z,51.330110621586726
2022-12-25T17:00:02.402Z,51.07326417094624
2022-12-25T17:15:02.043Z,50.67266300952235
2022-12-25T17:30:01.794Z,50.719158758793924
2022-12-25T17:45:02.460Z,50.461817020397056
2022-12-25T18:00:02.076Z,50.77972643181476
2022-12-25T18:15:01.760Z,50.796958071751334
2022-12-25T18:30:02.460Z,50.64464519518689
2022-12-25T18:45:02.110Z,50.45828005937823
2022-12-25T19:00:01.748Z,50.565671829918486
2022-12-25T19:15:02.405Z,49.951148784100916
2022-12-25T19:30:02.120Z,49.972775757243646
2022-12-25T19:45:01.795Z,50.40135545602584
2022-12-25T20:00:02.422Z,51.00607625548545
2022-12-25T20:15:02.099Z,51.793253824129096
2022-12-25T20:30:01.793Z,51.837490328636726
2022-12-25T20:45:01.451Z,52.527046646566255
2022-12-25T21:00:02.071Z,52.58836452779197
2022-12-25T21:15:01.785Z,52.47111112141956
2022-12-25T21:30:15.252Z,51.999178424447074
2022-12-25T21:45:02.244Z,52.41009911131181
2022-12-25T22:00:01.903Z,51.99570936917904
2022-12-25T22:15:01.541Z,51.53874825966424
2022-12-25T22:30:02.226Z,51.909947799639376
2022-12-25T22:45:01.888Z,52.78115471259318
2022-12-25T23:00:01.609Z,53.02217293503084
2022-12-25T23:15:02.304Z,53.12491361620459
2022-12-25T23:30:01.981Z,53.54405484112052
2022-12-25T23:45:01.700Z,54.38759203173644
